Time;durP1;ratioP1;P1;durP2;ratioP2;P2;SDS_P1;SDS_P2;PMS_P1;PMS_P2;Temp;Humidity;BMP_temperature;BMP_pressure;BME280_temperature;BME280_humidity;BME280_pressure;Samples;Min_cycle;Max_cycle;Signal;HPM_P1;HPM_P2
2022/06/27 00:01:38;;;;;;;;;;;;;;;12.09;61.29;99262.72;4810475;29;20043;-87
2022/06/27 00:04:03;;;;;;;;;;;;;;;12.18;60.81;99261.88;4825869;29;19936;-87
2022/06/27 00:06:29;;;;;;;;;;;;;;;12.09;61.15;99257.34;4825827;29;19935;-88
2022/06/27 00:08:55;;;;;;;;;;;;;;;11.98;61.50;99269.00;4825558;29;19952;-88
2022/06/27 00:11:21;;;;;;;;;;;;;;;11.96;61.36;99284.38;4811017;29;19928;-87
2022/06/27 00:13:48;;;;;;;;;;;;;;;11.93;61.49;99279.28;4828704;29;19929;-87
2022/06/27 00:16:13;;;;;;;;;;;;;;;12.02;60.77;99277.63;4829459;29;19936;-87
2022/06/27 00:18:39;;;;;;;;;;;;;;;11.94;60.99;99277.44;4827002;29;19929;-87
2022/06/27 00:21:05;;;;;;;;;;;;;;;11.92;61.50;99277.56;4826807;29;19929;-86
2022/06/27 00:23:30;;;;;;;;;;;;;;;11.90;61.41;99282.22;4825653;29;19932;-86
2022/06/27 00:25:56;;;;;;;;;;;;;;;11.96;61.11;99280.81;4795158;29;20286;-86
2022/06/27 00:28:22;;;;;;;;;;;;;;;11.98;61.26;99281.56;4809410;29;19929;-86
2022/06/27 00:30:47;;;;;;;;;;;;;;;12.04;60.97;99283.72;4810283;29;19933;-85
2022/06/27 00:33:13;;;;;;;;;;;;;;;12.13;60.56;99280.22;4825101;29;20445;-85
2022/06/27 00:35:39;;;;;;;;;;;;;;;12.12;60.68;99287.41;4825559;29;20415;-86
2022/06/27 00:38:05;;;;;;;;;;;;;;;12.09;60.50;99290.34;4824809;29;19929;-89
2022/06/27 00:40:30;;;;;;;;;;;;;;;12.09;60.51;99294.88;4794106;29;19935;-85
2022/06/27 00:42:56;;;;;;;;;;;;;;;12.14;60.54;99298.81;4793597;29;20381;-88
2022/06/27 00:45:22;;;;;;;;;;;;;;;12.11;60.44;99298.25;4839961;29;19929;-89
2022/06/27 00:47:47;;;;;;;;;;;;;;;12.17;60.51;99291.50;4824187;29;19933;-86
2022/06/27 00:50:13;;;;;;;;;;;;;;;12.26;60.13;99286.22;4808378;29;19928;-84
2022/06/27 00:52:40;;;;;;;;;;;;;;;12.12;60.39;99294.59;4793522;29;20300;-86
2022/06/27 00:55:06;;;;;;;;;;;;;;;12.16;60.24;99296.03;4793149;29;19933;-86
2022/06/27 00:57:32;;;;;;;;;;;;;;;12.26;60.00;99296.06;4808269;29;19928;-85
2022/06/27 00:59:58;;;;;;;;;;;;;;;12.22;59.81;99292.78;4808325;29;19929;-87
2022/06/27 01:02:24;;;;;;;;;;;;;;;12.19;59.99;99301.13;4808393;29;19928;-85
2022/06/27 01:04:50;;;;;;;;;;;;;;;12.28;59.45;99300.31;4792831;29;19960;-86
2022/06/27 01:07:15;;;;;;;;;;;;;;;12.19;59.75;99298.44;4823944;29;20020;-87
2022/06/27 01:09:43;;;;;;;;;;;;;;;12.25;59.42;99302.41;4837393;29;19929;-87
2022/06/27 01:12:09;;;;;;;;;;;;;;;12.22;59.44;99298.16;4793191;29;19928;-86
2022/06/27 01:14:35;;;;;;;;;;;;;;;12.30;59.17;99295.69;4793684;29;20289;-86
2022/06/27 01:17:00;;;;;;;;;;;;;;;12.25;59.40;99297.88;4826380;29;19928;-85
2022/06/27 01:19:26;;;;;;;;;;;;;;;12.38;59.08;99292.31;4796682;29;19928;-86
2022/06/27 01:21:53;;;;;;;;;;;;;;;12.39;58.74;99296.69;4815009;29;19957;-86
2022/06/27 01:24:20;;;;;;;;;;;;;;;12.46;58.47;99310.41;4830193;29;19929;-87
2022/06/27 01:26:46;;;;;;;;;;;;;;;12.47;58.40;99312.94;4814363;29;19929;-86
2022/06/27 01:29:15;;;;;;;;;;;;;;;12.47;58.39;99315.63;4829090;29;19928;-85
2022/06/27 01:31:40;;;;;;;;;;;;;;;12.42;58.40;99317.88;4829095;29;19928;-86
2022/06/27 01:34:07;;;;;;;;;;;;;;;12.46;58.32;99318.44;4829356;29;19932;-83
2022/06/27 01:36:42;;;;;;;;;;;;;;;12.46;58.28;99315.75;4815029;29;19979;-85
2022/06/27 01:39:16;;;;;;;;;;;;;;;12.50;58.22;99314.50;4834743;29;20001;-89
2022/06/27 01:41:44;;;;;;;;;;;;;;;12.53;58.10;99312.41;4834346;29;19929;-87
2022/06/27 01:44:10;;;;;;;;;;;;;;;12.60;58.23;99312.72;4833519;29;19929;-86
2022/06/27 01:46:40;;;;;;;;;;;;;;;12.58;58.21;99323.56;4812802;29;19990;-85
2022/06/27 01:49:06;;;;;;;;;;;;;;;12.61;58.23;99317.94;4792377;29;19932;-87
2022/06/27 01:51:31;;;;;;;;;;;;;;;12.59;58.73;99319.03;4788393;29;19928;-86
2022/06/27 01:53:58;;;;;;;;;;;;;;;12.76;58.46;99315.72;4782130;29;19945;-84
2022/06/27 01:56:25;;;;;;;;;;;;;;;12.85;57.88;99327.44;4810805;29;20023;-87
2022/06/27 01:58:52;;;;;;;;;;;;;;;12.77;58.09;99330.81;4811408;29;19967;-83
2022/06/27 02:01:18;;;;;;;;;;;;;;;12.85;58.00;99336.34;4811042;29;20397;-84
2022/06/27 02:03:44;;;;;;;;;;;;;;;12.87;57.99;99333.53;4844506;29;19985;-84
2022/06/27 02:06:11;;;;;;;;;;;;;;;12.97;57.82;99344.28;4848924;29;19934;-83
2022/06/27 02:08:41;;;;;;;;;;;;;;;12.87;58.42;99342.44;4832239;29;19928;-85
2022/06/27 02:11:08;;;;;;;;;;;;;;;12.87;58.42;99339.75;4831765;29;19928;-85
2022/06/27 02:13:34;;;;;;;;;;;;;;;12.93;57.85;99340.16;4829682;29;19928;-86
2022/06/27 02:16:22;;;;;;;;;;;;;;;12.98;57.77;99340.63;4806742;29;19932;-88
2022/06/27 02:18:48;;;;;;;;;;;;;;;13.10;57.33;99344.88;4813228;29;19929;-86
2022/06/27 02:21:20;;;;;;;;;;;;;;;12.98;57.68;99348.69;4813187;29;20412;-83
2022/06/27 02:23:46;;;;;;;;;;;;;;;13.14;57.30;99343.63;4828181;29;19933;-89
2022/06/27 02:26:12;;;;;;;;;;;;;;;13.24;56.67;99341.84;4798271;29;20404;-83
2022/06/27 02:28:38;;;;;;;;;;;;;;;13.25;57.12;99342.66;4813093;29;19929;-87
2022/06/27 02:31:06;;;;;;;;;;;;;;;13.28;55.73;99343.25;4812799;29;20427;-87
2022/06/27 02:33:32;;;;;;;;;;;;;;;13.24;56.25;99336.47;4828129;29;19929;-84
2022/06/27 02:35:59;;;;;;;;;;;;;;;13.40;55.79;99345.78;4844883;29;19928;-84
2022/06/27 02:38:27;;;;;;;;;;;;;;;13.44;56.08;99341.84;4828106;29;19929;-85
2022/06/27 02:40:57;;;;;;;;;;;;;;;13.34;55.71;99348.03;4827920;29;19928;-86
2022/06/27 02:43:24;;;;;;;;;;;;;;;13.42;55.98;99346.47;4812960;29;19928;-85
2022/06/27 02:45:50;;;;;;;;;;;;;;;13.43;55.21;99354.41;4797721;29;19954;-87
2022/06/27 02:48:18;;;;;;;;;;;;;;;13.47;55.37;99347.78;4828357;29;20035;-86
2022/06/27 02:50:46;;;;;;;;;;;;;;;13.50;55.15;99362.72;4813232;29;19929;-86
2022/06/27 02:53:16;;;;;;;;;;;;;;;13.50;55.12;99366.28;4812744;29;19928;-87
2022/06/27 02:55:52;;;;;;;;;;;;;;;13.45;54.78;99370.38;4827717;29;19936;-84
2022/06/27 02:58:34;;;;;;;;;;;;;;;13.54;55.15;99380.25;4812876;29;19929;-94
2022/06/27 03:01:02;;;;;;;;;;;;;;;13.57;55.10;99374.63;4812875;29;20303;-85
2022/06/27 03:03:30;;;;;;;;;;;;;;;13.70;54.65;99377.88;4797942;29;19933;-89
2022/06/27 03:05:57;;;;;;;;;;;;;;;13.79;53.71;99381.53;4812744;29;19940;-88
2022/06/27 03:08:23;;;;;;;;;;;;;;;13.75;53.44;99386.34;4812553;29;19935;-81
2022/06/27 03:10:48;;;;;;;;;;;;;;;13.45;53.85;99386.50;4828148;29;19928;-86
2022/06/27 03:13:15;;;;;;;;;;;;;;;13.38;54.33;99377.28;4813414;29;20032;-93
2022/06/27 03:15:42;;;;;;;;;;;;;;;13.40;54.20;99384.22;4813347;29;19935;-93
2022/06/27 03:18:12;;;;;;;;;;;;;;;13.61;53.77;99381.41;4798043;29;20318;-83
2022/06/27 03:20:57;;;;;;;;;;;;;;;13.88;53.97;99383.38;4833783;29;19928;-85
2022/06/27 03:23:42;;;;;;;;;;;;;;;14.02;53.60;99387.47;4814713;29;20034;-87
2022/06/27 03:26:07;;;;;;;;;;;;;;;14.08;53.38;99390.44;4797243;29;19934;-89
2022/06/27 03:28:34;;;;;;;;;;;;;;;14.09;52.72;99375.13;4827577;29;19929;-83
2022/06/27 03:31:02;;;;;;;;;;;;;;;14.13;53.21;99375.69;4827088;29;19928;-83
2022/06/27 03:33:32;;;;;;;;;;;;;;;14.23;53.62;99365.78;4831136;29;19929;-88
2022/06/27 03:36:05;;;;;;;;;;;;;;;14.45;51.78;99359.22;4830169;29;19935;-84
2022/06/27 03:38:30;;;;;;;;;;;;;;;14.64;51.65;99361.84;4830385;29;19928;-87
2022/06/27 03:40:57;;;;;;;;;;;;;;;14.71;51.17;99368.34;4799847;29;19932;-87
2022/06/27 03:43:23;;;;;;;;;;;;;;;14.79;50.63;99376.50;4812440;29;20451;-84
2022/06/27 03:45:49;;;;;;;;;;;;;;;14.85;50.99;99358.06;4811709;29;19968;-86
2022/06/27 03:50:00;;;;;;;;;;;;;;;15.14;50.61;99361.44;4827463;29;19952;-81
2022/06/27 03:51:36;;;;;;;;;;;;;;;15.18;50.35;99378.97;4750572;30;19934;-79
2022/06/27 03:54:01;;;;;;;;;;;;;;;15.10;49.75;99384.28;4811415;29;20023;-86
2022/06/27 03:56:27;;;;;;;;;;;;;;;15.07;49.42;99377.34;4826617;29;20031;-80
2022/06/27 03:58:53;;;;;;;;;;;;;;;14.95;49.84;99388.47;4827055;29;19936;-83
2022/06/27 04:01:19;;;;;;;;;;;;;;;14.64;50.52;99387.91;4813364;29;19932;-90
2022/06/27 04:03:45;;;;;;;;;;;;;;;14.57;50.87;99387.66;4814247;29;19954;-80
2022/06/27 04:06:13;;;;;;;;;;;;;;;14.52;51.33;99376.50;4827501;29;19985;-80
2022/06/27 04:08:40;;;;;;;;;;;;;;;14.70;50.76;99380.06;4828092;29;19968;-83
2022/06/27 04:11:06;;;;;;;;;;;;;;;14.71;50.78;99384.47;4812405;29;19936;-87
2022/06/27 04:13:35;;;;;;;;;;;;;;;14.74;51.00;99380.63;4830085;29;19960;-82
2022/06/27 04:16:19;;;;;;;;;;;;;;;14.69;50.81;99383.75;4828166;29;19928;-87
2022/06/27 04:19:14;;;;;;;;;;;;;;;14.64;50.79;99391.44;4793837;29;20040;-88
2022/06/27 04:21:58;;;;;;;;;;;;;;;14.57;51.22;99387.66;4844467;29;19928;-86
2022/06/27 04:25:03;;;;;;;;;;;;;;;14.75;51.20;99379.66;4788090;30;20367;-79
2022/06/27 04:27:41;;;;;;;;;;;;;;;14.88;51.29;99387.38;4786886;30;19936;-86
2022/06/27 04:30:08;;;;;;;;;;;;;;;14.95;50.50;99388.47;4797075;29;20274;-90
2022/06/27 04:32:34;;;;;;;;;;;;;;;14.86;50.07;99384.00;4843784;29;19985;-91
2022/06/27 04:35:01;;;;;;;;;;;;;;;14.85;50.34;99395.75;4828268;29;19929;-90
2022/06/27 04:37:27;;;;;;;;;;;;;;;14.88;50.19;99387.38;4827732;29;19928;-88
2022/06/27 04:40:28;;;;;;;;;;;;;;;15.13;49.88;99392.06;4770364;30;19930;-92
2022/06/27 04:42:56;;;;;;;;;;;;;;;15.37;49.64;99382.53;4801092;29;19988;-85
2022/06/27 04:45:22;;;;;;;;;;;;;;;15.66;50.25;99383.22;4812206;29;19928;-92
2022/06/27 04:47:55;;;;;;;;;;;;;;;15.89;48.03;99386.28;4827444;29;19929;-85
2022/06/27 04:50:23;;;;;;;;;;;;;;;15.81;47.53;99390.75;4828718;29;19928;-92
2022/06/27 04:52:49;;;;;;;;;;;;;;;15.67;47.01;99387.59;4831031;29;19988;-90
2022/06/27 04:55:16;;;;;;;;;;;;;;;15.91;46.97;99380.72;4832195;29;19932;-86
2022/06/27 04:57:43;;;;;;;;;;;;;;;16.30;47.31;99377.66;4812196;29;19929;-86
2022/06/27 05:00:10;;;;;;;;;;;;;;;16.62;45.66;99385.91;4797759;29;19929;-93
2022/06/27 05:02:56;;;;;;;;;;;;;;;16.79;45.65;99397.69;4800604;29;19933;-89
2022/06/27 05:05:22;;;;;;;;;;;;;;;16.83;45.17;99388.25;4797428;29;19936;-89
2022/06/27 05:07:48;;;;;;;;;;;;;;;16.98;44.21;99402.00;4814225;29;19929;-92
2022/06/27 05:10:14;;;;;;;;;;;;;;;17.19;44.54;99378.13;4798968;29;19985;-92
2022/06/27 05:12:39;;;;;;;;;;;;;;;17.40;44.06;99384.91;4800255;29;19982;-84
2022/06/27 05:15:06;;;;;;;;;;;;;;;17.41;44.19;99392.00;4813928;29;19983;-92
2022/06/27 05:17:32;;;;;;;;;;;;;;;17.61;43.12;99396.13;4813307;29;20339;-83
2022/06/27 05:19:57;;;;;;;;;;;;;;;17.62;43.02;99395.09;4810924;29;20282;-86
2022/06/27 05:22:23;;;;;;;;;;;;;;;17.35;43.47;99388.13;4797575;29;19940;-93
2022/06/27 05:24:49;;;;;;;;;;;;;;;17.41;43.16;99384.75;4811470;29;20367;-87
2022/06/27 05:27:16;;;;;;;;;;;;;;;17.29;43.84;99396.88;4811493;29;19978;-85
2022/06/27 05:29:42;;;;;;;;;;;;;;;17.20;43.62;99396.00;4811924;29;19929;-89
2022/06/27 05:32:09;;;;;;;;;;;;;;;17.43;44.27;99381.88;4811757;29;19977;-86
2022/06/27 05:34:35;;;;;;;;;;;;;;;17.69;43.94;99382.59;4813903;29;19928;-90
2022/06/27 05:37:01;;;;;;;;;;;;;;;17.84;43.43;99384.69;4796512;29;20385;-86
2022/06/27 05:39:28;;;;;;;;;;;;;;;18.03;43.25;99387.03;4811194;29;19928;-83
2022/06/27 05:41:53;;;;;;;;;;;;;;;18.00;42.76;99394.66;4812391;29;19936;-84
2022/06/27 05:44:23;;;;;;;;;;;;;;;17.66;43.11;99401.00;4796602;29;20027;-87
2022/06/27 05:46:49;;;;;;;;;;;;;;;17.26;43.77;99405.31;4813340;29;19936;-88
2022/06/27 05:49:34;;;;;;;;;;;;;;;17.30;44.17;99395.88;4811727;29;19936;-86
2022/06/27 05:51:59;;;;;;;;;;;;;;;17.49;44.04;99405.56;4811802;29;19929;-92
2022/06/27 05:54:27;;;;;;;;;;;;;;;17.45;43.96;99404.16;4797295;29;19956;-87
2022/06/27 05:56:53;;;;;;;;;;;;;;;17.42;43.65;99401.81;4825466;29;20361;-90
2022/06/27 05:59:19;;;;;;;;;;;;;;;17.23;43.68;99393.00;4830734;29;19932;-89
2022/06/27 06:01:46;;;;;;;;;;;;;;;17.06;43.95;99393.94;4829270;29;19933;-85
2022/06/27 06:04:13;;;;;;;;;;;;;;;17.37;44.13;99393.34;4813940;29;19981;-89
2022/06/27 06:06:41;;;;;;;;;;;;;;;17.52;44.00;99390.84;4826103;29;20373;-83
2022/06/27 06:09:07;;;;;;;;;;;;;;;17.52;44.33;99399.78;4811062;29;20313;-83
2022/06/27 06:11:33;;;;;;;;;;;;;;;17.62;44.37;99395.09;4810485;29;19928;-85
2022/06/27 06:13:59;;;;;;;;;;;;;;;17.64;44.07;99397.63;4812031;29;20339;-87
2022/06/27 06:16:24;;;;;;;;;;;;;;;17.45;44.27;99377.16;4826338;29;19935;-88
2022/06/27 06:18:52;;;;;;;;;;;;;;;17.53;43.92;99382.59;4826073;29;19929;-84
2022/06/27 06:21:22;;;;;;;;;;;;;;;17.68;44.11;99386.31;4810406;29;19941;-84
2022/06/27 06:23:49;;;;;;;;;;;;;;;17.71;44.43;99387.81;4810586;29;19928;-85
2022/06/27 06:26:16;;;;;;;;;;;;;;;17.79;43.25;99387.91;4810136;29;19929;-82
2022/06/27 06:28:43;;;;;;;;;;;;;;;18.14;43.02;99373.16;4825774;29;19990;-84
2022/06/27 06:31:09;;;;;;;;;;;;;;;18.28;43.39;99368.94;4829246;29;19935;-91
2022/06/27 06:33:37;;;;;;;;;;;;;;;18.39;42.61;99359.59;4813849;29;19929;-85
2022/06/27 06:36:05;;;;;;;;;;;;;;;18.51;42.77;99363.66;4825771;29;19925;-86
2022/06/27 06:38:31;;;;;;;;;;;;;;;18.60;42.73;99365.28;4826012;29;19929;-85
2022/06/27 06:40:59;;;;;;;;;;;;;;;18.61;41.67;99366.97;4810524;29;19981;-86
2022/06/27 06:43:25;;;;;;;;;;;;;;;18.63;41.94;99361.41;4830543;29;19928;-87
2022/06/27 06:46:25;;;;;;;;;;;;;;;18.62;41.98;99365.97;4831419;29;19925;-92
2022/06/27 06:49:11;;;;;;;;;;;;;;;18.58;42.54;99375.47;4773972;30;20329;-82
2022/06/27 06:51:39;;;;;;;;;;;;;;;18.40;41.97;99372.13;4788008;30;19930;-82
2022/06/27 06:54:05;;;;;;;;;;;;;;;18.36;43.04;99370.78;4758799;30;19936;-87
2022/06/27 06:56:31;;;;;;;;;;;;;;;18.30;43.05;99376.88;4772875;30;19934;-87
2022/06/27 06:59:01;;;;;;;;;;;;;;;18.01;42.98;99375.53;4758739;30;20410;-90
2022/06/27 07:01:27;;;;;;;;;;;;;;;18.16;42.55;99365.72;4758684;30;19937;-92
2022/06/27 07:03:56;;;;;;;;;;;;;;;18.35;42.41;99388.00;4789141;30;19929;-85
2022/06/27 07:06:24;;;;;;;;;;;;;;;18.65;42.49;99371.06;4774378;30;19936;-87
2022/06/27 07:08:54;;;;;;;;;;;;;;;18.76;42.31;99374.41;4787798;30;19929;-81
2022/06/27 07:11:31;;;;;;;;;;;;;;;19.04;41.86;99369.41;4787913;30;19933;-83
2022/06/27 07:34:21;;;;;;;;;;;;;;;;;;;;;
2022/06/27 07:41:32;;;;;;;;;;;;;;;20.26;39.95;99351.41;4661949;30;19939;-86
2022/06/27 07:44:19;;;;;;;;;;;;;;;20.25;39.39;99344.31;4662552;30;20443;-86
2022/06/27 07:56:20;;;;;;;;;;;;;;;;;;;;;
2022/06/27 07:59:28;;;;;;;;;;;;;;;20.73;39.33;99328.56;4579619;30;20298;-85
2022/06/27 08:02:27;;;;;;;;;;;;;;;20.79;38.92;99327.78;4663613;30;19931;-85
2022/06/27 08:25:58;;;;;;;;;;;;;;;;;;;;;
2022/06/27 08:33:24;;;;;;;;;;;;;;;21.37;38.57;99306.97;4562249;31;20281;-88
2022/06/27 08:43:35;;;;;;;;;;;;;;;21.44;37.74;99304.31;4593709;31;19940;-93
2022/06/27 08:54:54;;;;;;;;;;;;;;;;;;;;;
2022/06/27 08:59:26;;;;;;;;;;;;;;;;;;;;;
2022/06/27 09:02:55;;;;;;;;;;;;;;;21.45;36.59;99298.69;4652144;30;19993;-91
2022/06/27 09:18:04;;;;;;;;;;;;;;;22.89;36.61;99282.75;4697580;30;19970;-88
2022/06/27 09:20:52;;;;;;;;;;;;;;;22.41;35.28;99274.53;4606129;30;20039;-86
2022/06/27 09:27:26;;;;;;;;;;;;;;;22.57;35.96;99261.63;4661985;30;19938;-89
2022/06/27 09:29:53;;;;;;;;;;;;;;;22.86;35.16;99249.59;4662308;30;20006;-87
2022/06/27 09:36:41;;;;;;;;;;;;;;;;;;;;;
2022/06/27 09:40:35;;;;;;;;;;;;;;;;;;;;;
2022/06/27 09:52:15;;;;;;;;;;;;;;;24.31;33.12;99243.44;4738805;30;19965;-84
2022/06/27 09:56:10;;;;;;;;;;;;;;;25.43;32.09;99244.03;4771539;30;20049;-85
2022/06/27 10:26:44;;;;;;;;;;;;;;;;;;;;;
2022/06/27 10:34:28;;;;;;;;;;;;;;;26.57;28.67;99201.66;4798089;29;20319;-91
2022/06/27 10:37:34;;;;;;;;;;;;;;;27.02;27.23;99184.81;4796206;29;19936;-89
2022/06/27 10:40:38;;;;;;;;;;;;;;;28.06;26.51;99171.50;4809562;29;20023;-89
2022/06/27 10:48:08;;;;;;;;;;;;;;;;;;;;;
2022/06/27 10:50:56;;;;;;;;;;;;;;;;;;;;;
2022/06/27 10:53:33;;;;;;;;;;;;;;;27.38;26.93;99173.94;4738823;30;19929;-90
2022/06/27 10:57:18;;;;;;;;;;;;;;;29.01;25.38;99170.19;4741986;30;19929;-90
2022/06/27 11:59:03;;;;;;;;;;;;;;;;;;;;;
2022/06/27 12:18:02;;;;;;;;;;;;;;;33.80;18.55;99095.19;4680575;30;20403;-84
2022/06/27 12:21:37;;;;;;;;;;;;;;;34.76;18.33;99084.00;4694794;30;20427;-88
2022/06/27 12:33:48;;;;;;;;;;;;;;;;;;;;;
2022/06/27 12:41:11;;;;;;;;;;;;;;;36.70;16.86;99068.91;4542456;31;19934;-88
2022/06/27 13:01:45;;;;;;;;;;;;;;;34.30;19.69;99062.03;4561583;31;19934;-87
2022/06/27 13:09:04;;;;;;;;;;;;;;;;;;;;;
2022/06/27 13:20:56;;;;;;;;;;;;;;;;;;;;;
2022/06/27 13:24:36;;;;;;;;;;;;;;;;;;;;;
2022/06/27 13:35:51;;;;;;;;;;;;;;;34.02;19.53;99046.91;4603501;31;19937;-84
2022/06/27 13:38:47;;;;;;;;;;;;;;;31.87;21.26;99045.94;4578302;31;19933;-90
2022/06/27 13:41:17;;;;;;;;;;;;;;;30.08;23.42;99040.72;4615599;30;19932;-90
2022/06/27 13:44:26;;;;;;;;;;;;;;;30.22;23.32;99051.13;4704543;30;20303;-88
2022/06/27 13:46:54;;;;;;;;;;;;;;;30.27;23.28;99041.22;4828344;29;19928;-87
2022/06/27 13:57:13;;;;;;;;;;;;;;;32.07;21.72;99023.06;4735551;30;19938;-87
2022/06/27 13:59:40;;;;;;;;;;;;;;;31.87;21.54;99023.81;4670042;30;19973;-86
2022/06/27 14:02:28;;;;;;;;;;;;;;;32.02;21.57;99023.03;4716599;30;19930;-87
2022/06/27 14:06:00;;;;;;;;;;;;;;;;;;;;;
2022/06/27 14:12:03;;;;;;;;;;;;;;;29.73;24.15;99017.97;4709992;30;19985;-88
2022/06/27 14:14:55;;;;;;;;;;;;;;;29.60;24.71;99014.75;4729466;30;20501;-88
2022/06/27 14:17:29;;;;;;;;;;;;;;;30.77;23.35;99009.75;4720772;30;20026;-92
2022/06/27 14:20:29;;;;;;;;;;;;;;;31.54;22.66;99014.75;4733998;30;20084;-92
2022/06/27 14:27:04;;;;;;;;;;;;;;;33.83;20.69;98999.56;4756142;30;20029;-87
2022/06/27 14:32:31;;;;;;;;;;;;;;;33.45;20.50;99003.81;4789241;29;19997;-89
2022/06/27 14:38:28;;;;;;;;;;;;;;;36.09;18.37;98993.81;4791153;29;19951;-87
2022/06/27 14:41:03;;;;;;;;;;;;;;;36.82;17.48;98990.47;4827248;29;19935;-86
2022/06/27 14:44:19;;;;;;;;;;;;;;;36.08;18.08;98987.41;4829080;29;19928;-90
2022/06/27 14:47:34;;;;;;;;;;;;;;;36.17;17.95;98979.22;4761558;30;20102;-87
2022/06/27 14:53:45;;;;;;;;;;;;;;;36.26;17.71;98969.06;4806605;29;19985;-91
2022/06/27 15:04:57;;;;;;;;;;;;;;;37.41;16.52;98955.44;4660988;30;19931;-89
2022/06/27 15:07:59;;;;;;;;;;;;;;;37.42;16.52;98940.38;4624855;30;20381;-91
2022/06/27 15:11:37;;;;;;;;;;;;;;;37.37;16.67;98948.81;4715124;30;19930;-86
2022/06/27 15:14:28;;;;;;;;;;;;;;;35.38;18.15;98929.56;4735725;30;19933;-87
2022/06/27 15:17:02;;;;;;;;;;;;;;;35.03;18.73;98930.78;4750435;30;19930;-88
2022/06/27 15:20:19;;;;;;;;;;;;;;;35.65;18.25;98922.59;4751830;30;19938;-89
2022/06/27 15:23:50;;;;;;;;;;;;;;;;;;;;;
2022/06/27 15:31:26;;;;;;;;;;;;;;;36.47;17.90;98900.84;4725396;30;19991;-87
2022/06/27 15:34:31;;;;;;;;;;;;;;;36.69;18.05;98896.56;4736128;30;20318;-90
2022/06/27 15:45:51;;;;;;;;;;;;;;;36.05;18.46;98875.91;4636206;30;19932;-88
2022/06/27 15:48:48;;;;;;;;;;;;;;;35.79;18.74;98870.69;4633907;30;19932;-88
2022/06/27 15:52:07;;;;;;;;;;;;;;;35.12;19.51;98878.19;4637495;30;19939;-88
2022/06/27 15:56:09;;;;;;;;;;;;;;;;;;;;;
2022/06/27 15:59:48;;;;;;;;;;;;;;;;;;;;;
2022/06/27 16:02:49;;;;;;;;;;;;;;;28.49;26.83;98886.19;4565741;31;19934;-92
2022/06/27 16:05:15;;;;;;;;;;;;;;;27.80;27.56;98878.13;4598892;30;19933;-86
2022/06/27 16:08:24;;;;;;;;;;;;;;;;;;;;;
2022/06/27 16:11:00;;;;;;;;;;;;;;;26.72;29.55;98869.47;4734374;30;19929;-90
2022/06/27 16:13:47;;;;;;;;;;;;;;;26.30;30.31;98869.56;4748828;30;20377;-87
2022/06/27 16:17:12;;;;;;;;;;;;;;;;;;;;;
2022/06/27 16:36:18;;;;;;;;;;;;;;;23.74;35.11;98865.66;4595781;31;19985;-93
2022/06/27 16:45:38;;;;;;;;;;;;;;;23.07;36.79;98878.72;4553246;31;20531;-81
2022/06/27 16:48:10;;;;;;;;;;;;;;;22.95;37.14;98878.56;4589165;30;19932;-80
2022/06/27 16:50:38;;;;;;;;;;;;;;;22.82;37.39;98873.09;4765423;29;19929;-79
2022/06/27 16:53:04;;;;;;;;;;;;;;;22.69;37.40;98875.84;4787512;29;19929;-80
2022/06/27 16:55:34;;;;;;;;;;;;;;;22.60;37.93;98874.41;4773114;29;19987;-80
2022/06/27 16:58:10;;;;;;;;;;;;;;;22.50;38.65;98864.78;4753314;30;19930;-80
2022/06/27 17:01:23;;;;;;;;;;;;;;;22.32;39.13;98842.78;4768179;30;20399;-79
2022/06/27 17:03:49;;;;;;;;;;;;;;;22.13;39.48;98840.91;4768270;30;19930;-81
2022/06/27 17:06:21;;;;;;;;;;;;;;;22.03;39.49;98853.00;4768351;30;19955;-82
2022/06/27 17:08:58;;;;;;;;;;;;;;;21.98;40.11;98862.88;4768066;30;19968;-80
2022/06/27 17:11:26;;;;;;;;;;;;;;;21.85;40.87;98855.50;4783046;30;20442;-78
2022/06/27 17:13:52;;;;;;;;;;;;;;;21.72;41.81;98850.06;4768275;30;19930;-81
2022/06/27 17:16:20;;;;;;;;;;;;;;;21.66;41.45;98848.16;4785968;29;19944;-80
2022/06/27 17:18:49;;;;;;;;;;;;;;;21.60;42.59;98851.72;4750312;30;19957;-79
